sensor_id;sensor_type;location;lat;lon;timestamp;P1;durP1;ratioP1;P2;durP2;ratioP2
24425;SDS011;12611;44.446;26.000;2022-11-03T00:01:34;11.70;;;5.87;;
24425;SDS011;12611;44.446;26.000;2022-11-03T00:04:04;15.60;;;6.70;;
24425;SDS011;12611;44.446;26.000;2022-11-03T00:06:33;16.73;;;7.03;;
24425;SDS011;12611;44.446;26.000;2022-11-03T00:09:02;18.93;;;7.57;;
24425;SDS011;12611;44.446;26.000;2022-11-03T00:11:32;15.50;;;7.57;;
24425;SDS011;12611;44.446;26.000;2022-11-03T00:14:01;19.23;;;8.10;;
24425;SDS011;12611;44.446;26.000;2022-11-03T00:16:30;15.70;;;6.90;;
24425;SDS011;12611;44.446;26.000;2022-11-03T00:19:00;12.27;;;7.07;;
24425;SDS011;12611;44.446;26.000;2022-11-03T00:21:29;17.50;;;6.67;;
24425;SDS011;12611;44.446;26.000;2022-11-03T00:23:57;16.83;;;7.27;;
24425;SDS011;12611;44.446;26.000;2022-11-03T00:26:28;17.07;;;7.00;;
24425;SDS011;12611;44.446;26.000;2022-11-03T00:28:57;12.23;;;7.00;;
24425;SDS011;12611;44.446;26.000;2022-11-03T00:31:27;13.30;;;6.77;;
24425;SDS011;12611;44.446;26.000;2022-11-03T00:33:57;12.37;;;7.50;;
24425;SDS011;12611;44.446;26.000;2022-11-03T00:36:28;17.43;;;7.10;;
24425;SDS011;12611;44.446;26.000;2022-11-03T00:38:58;12.13;;;6.27;;
24425;SDS011;12611;44.446;26.000;2022-11-03T00:44:25;16.40;;;7.37;;
24425;SDS011;12611;44.446;26.000;2022-11-03T00:46:53;14.00;;;6.60;;
24425;SDS011;12611;44.446;26.000;2022-11-03T00:49:22;15.30;;;6.93;;
24425;SDS011;12611;44.446;26.000;2022-11-03T00:51:52;13.97;;;6.70;;
24425;SDS011;12611;44.446;26.000;2022-11-03T00:54:20;16.27;;;7.67;;
24425;SDS011;12611;44.446;26.000;2022-11-03T00:56:49;16.37;;;7.13;;
24425;SDS011;12611;44.446;26.000;2022-11-03T01:02:48;13.10;;;6.77;;
24425;SDS011;12611;44.446;26.000;2022-11-03T01:05:16;17.03;;;6.83;;
24425;SDS011;12611;44.446;26.000;2022-11-03T01:08:03;15.47;;;7.80;;
24425;SDS011;12611;44.446;26.000;2022-11-03T01:10:34;13.47;;;7.10;;
24425;SDS011;12611;44.446;26.000;2022-11-03T01:13:24;14.43;;;7.90;;
24425;SDS011;12611;44.446;26.000;2022-11-03T01:15:55;13.60;;;6.90;;
24425;SDS011;12611;44.446;26.000;2022-11-03T01:18:24;17.60;;;7.73;;
24425;SDS011;12611;44.446;26.000;2022-11-03T01:20:53;16.87;;;7.37;;
24425;SDS011;12611;44.446;26.000;2022-11-03T01:23:23;15.30;;;7.80;;
24425;SDS011;12611;44.446;26.000;2022-11-03T01:25:52;15.63;;;7.33;;
24425;SDS011;12611;44.446;26.000;2022-11-03T01:28:20;17.03;;;7.17;;
24425;SDS011;12611;44.446;26.000;2022-11-03T01:30:48;16.30;;;7.90;;
24425;SDS011;12611;44.446;26.000;2022-11-03T01:33:16;17.73;;;7.53;;
24425;SDS011;12611;44.446;26.000;2022-11-03T01:35:45;18.03;;;7.70;;
24425;SDS011;12611;44.446;26.000;2022-11-03T01:38:13;15.47;;;8.07;;
24425;SDS011;12611;44.446;26.000;2022-11-03T01:40:43;17.73;;;7.77;;
24425;SDS011;12611;44.446;26.000;2022-11-03T01:43:14;17.07;;;7.73;;
24425;SDS011;12611;44.446;26.000;2022-11-03T01:45:43;13.47;;;6.77;;
24425;SDS011;12611;44.446;26.000;2022-11-03T01:48:13;17.13;;;7.67;;
24425;SDS011;12611;44.446;26.000;2022-11-03T01:50:45;19.33;;;8.70;;
24425;SDS011;12611;44.446;26.000;2022-11-03T01:53:15;19.17;;;7.53;;
24425;SDS011;12611;44.446;26.000;2022-11-03T01:55:46;14.53;;;7.67;;
24425;SDS011;12611;44.446;26.000;2022-11-03T01:58:18;15.93;;;7.33;;
24425;SDS011;12611;44.446;26.000;2022-11-03T02:00:49;14.93;;;7.07;;
24425;SDS011;12611;44.446;26.000;2022-11-03T02:03:20;13.77;;;7.57;;
24425;SDS011;12611;44.446;26.000;2022-11-03T02:05:49;25.50;;;8.57;;
24425;SDS011;12611;44.446;26.000;2022-11-03T02:08:20;14.37;;;7.73;;
24425;SDS011;12611;44.446;26.000;2022-11-03T02:10:52;16.20;;;7.33;;
24425;SDS011;12611;44.446;26.000;2022-11-03T02:13:22;18.00;;;8.07;;
24425;SDS011;12611;44.446;26.000;2022-11-03T02:15:52;17.00;;;7.53;;
24425;SDS011;12611;44.446;26.000;2022-11-03T02:18:25;14.37;;;7.20;;
24425;SDS011;12611;44.446;26.000;2022-11-03T02:20:56;17.10;;;7.77;;
24425;SDS011;12611;44.446;26.000;2022-11-03T02:23:38;15.90;;;7.77;;
24425;SDS011;12611;44.446;26.000;2022-11-03T02:26:11;22.13;;;8.10;;
24425;SDS011;12611;44.446;26.000;2022-11-03T02:28:42;17.57;;;7.50;;
24425;SDS011;12611;44.446;26.000;2022-11-03T02:31:11;17.97;;;7.90;;
24425;SDS011;12611;44.446;26.000;2022-11-03T02:33:46;19.43;;;6.93;;
24425;SDS011;12611;44.446;26.000;2022-11-03T02:36:19;19.53;;;7.63;;
24425;SDS011;12611;44.446;26.000;2022-11-03T02:38:52;15.90;;;8.40;;
24425;SDS011;12611;44.446;26.000;2022-11-03T02:41:25;16.03;;;7.60;;
24425;SDS011;12611;44.446;26.000;2022-11-03T02:43:56;17.17;;;7.53;;
24425;SDS011;12611;44.446;26.000;2022-11-03T02:46:24;17.80;;;8.30;;
24425;SDS011;12611;44.446;26.000;2022-11-03T02:48:54;15.80;;;7.90;;
24425;SDS011;12611;44.446;26.000;2022-11-03T02:51:23;16.87;;;8.60;;
24425;SDS011;12611;44.446;26.000;2022-11-03T02:53:54;16.73;;;7.63;;
24425;SDS011;12611;44.446;26.000;2022-11-03T02:56:30;15.20;;;7.83;;
24425;SDS011;12611;44.446;26.000;2022-11-03T02:59:02;16.97;;;7.97;;
24425;SDS011;12611;44.446;26.000;2022-11-03T03:01:36;17.77;;;9.37;;
24425;SDS011;12611;44.446;26.000;2022-11-03T03:04:15;17.57;;;8.53;;
24425;SDS011;12611;44.446;26.000;2022-11-03T03:06:49;16.23;;;7.73;;
24425;SDS011;12611;44.446;26.000;2022-11-03T03:09:23;20.30;;;8.70;;
24425;SDS011;12611;44.446;26.000;2022-11-03T03:11:57;17.53;;;8.40;;
24425;SDS011;12611;44.446;26.000;2022-11-03T03:14:27;17.00;;;8.20;;
24425;SDS011;12611;44.446;26.000;2022-11-03T03:17:00;15.83;;;8.23;;
24425;SDS011;12611;44.446;26.000;2022-11-03T03:19:36;17.47;;;7.47;;
24425;SDS011;12611;44.446;26.000;2022-11-03T03:22:15;15.63;;;7.40;;
24425;SDS011;12611;44.446;26.000;2022-11-03T03:24:51;14.60;;;7.90;;
24425;SDS011;12611;44.446;26.000;2022-11-03T03:27:26;18.77;;;8.60;;
24425;SDS011;12611;44.446;26.000;2022-11-03T03:29:59;16.83;;;8.23;;
24425;SDS011;12611;44.446;26.000;2022-11-03T03:32:30;17.90;;;8.50;;
24425;SDS011;12611;44.446;26.000;2022-11-03T03:35:03;16.87;;;8.03;;
24425;SDS011;12611;44.446;26.000;2022-11-03T03:37:35;16.87;;;8.77;;
24425;SDS011;12611;44.446;26.000;2022-11-03T03:40:06;21.00;;;8.27;;
24425;SDS011;12611;44.446;26.000;2022-11-03T03:42:40;15.73;;;7.77;;
24425;SDS011;12611;44.446;26.000;2022-11-03T03:45:12;19.05;;;9.00;;
24425;SDS011;12611;44.446;26.000;2022-11-03T03:47:41;18.87;;;9.10;;
24425;SDS011;12611;44.446;26.000;2022-11-03T03:50:10;17.87;;;8.43;;
24425;SDS011;12611;44.446;26.000;2022-11-03T03:52:39;19.67;;;8.77;;
24425;SDS011;12611;44.446;26.000;2022-11-03T03:55:11;16.37;;;8.43;;
24425;SDS011;12611;44.446;26.000;2022-11-03T03:57:46;19.80;;;8.83;;
24425;SDS011;12611;44.446;26.000;2022-11-03T04:00:14;23.07;;;8.50;;
24425;SDS011;12611;44.446;26.000;2022-11-03T04:02:44;17.67;;;8.70;;
24425;SDS011;12611;44.446;26.000;2022-11-03T04:05:13;18.70;;;7.93;;
24425;SDS011;12611;44.446;26.000;2022-11-03T04:07:41;18.77;;;8.33;;
24425;SDS011;12611;44.446;26.000;2022-11-03T04:10:17;17.57;;;7.67;;
24425;SDS011;12611;44.446;26.000;2022-11-03T04:12:49;16.63;;;8.47;;
24425;SDS011;12611;44.446;26.000;2022-11-03T04:15:35;17.60;;;8.70;;
24425;SDS011;12611;44.446;26.000;2022-11-03T04:18:21;15.27;;;8.27;;
24425;SDS011;12611;44.446;26.000;2022-11-03T04:21:08;18.97;;;8.80;;
24425;SDS011;12611;44.446;26.000;2022-11-03T04:23:56;16.60;;;7.97;;
24425;SDS011;12611;44.446;26.000;2022-11-03T04:26:26;16.27;;;8.87;;
24425;SDS011;12611;44.446;26.000;2022-11-03T04:28:56;17.90;;;8.17;;
24425;SDS011;12611;44.446;26.000;2022-11-03T04:31:25;17.87;;;9.13;;
24425;SDS011;12611;44.446;26.000;2022-11-03T04:33:56;18.73;;;9.57;;
24425;SDS011;12611;44.446;26.000;2022-11-03T04:36:25;18.87;;;9.03;;
24425;SDS011;12611;44.446;26.000;2022-11-03T04:38:54;19.47;;;7.93;;
24425;SDS011;12611;44.446;26.000;2022-11-03T04:41:23;16.67;;;9.07;;
24425;SDS011;12611;44.446;26.000;2022-11-03T04:43:56;16.40;;;8.57;;
24425;SDS011;12611;44.446;26.000;2022-11-03T04:46:25;25.57;;;9.40;;
24425;SDS011;12611;44.446;26.000;2022-11-03T04:48:56;22.30;;;8.73;;
24425;SDS011;12611;44.446;26.000;2022-11-03T04:51:28;18.27;;;8.47;;
24425;SDS011;12611;44.446;26.000;2022-11-03T04:54:00;17.67;;;9.37;;
24425;SDS011;12611;44.446;26.000;2022-11-03T04:56:31;19.20;;;9.93;;
24425;SDS011;12611;44.446;26.000;2022-11-03T04:59:01;20.83;;;9.90;;
24425;SDS011;12611;44.446;26.000;2022-11-03T05:01:29;25.53;;;10.00;;
24425;SDS011;12611;44.446;26.000;2022-11-03T05:03:59;18.37;;;9.20;;
24425;SDS011;12611;44.446;26.000;2022-11-03T05:06:27;22.30;;;10.00;;
24425;SDS011;12611;44.446;26.000;2022-11-03T05:08:57;21.70;;;9.10;;
24425;SDS011;12611;44.446;26.000;2022-11-03T05:11:28;25.23;;;9.33;;
24425;SDS011;12611;44.446;26.000;2022-11-03T05:13:59;24.10;;;9.40;;
24425;SDS011;12611;44.446;26.000;2022-11-03T05:16:31;18.83;;;9.07;;
24425;SDS011;12611;44.446;26.000;2022-11-03T05:19:00;17.57;;;8.30;;
24425;SDS011;12611;44.446;26.000;2022-11-03T05:21:28;16.43;;;8.60;;
24425;SDS011;12611;44.446;26.000;2022-11-03T05:23:57;23.73;;;10.03;;
24425;SDS011;12611;44.446;26.000;2022-11-03T05:26:31;26.97;;;8.97;;
24425;SDS011;12611;44.446;26.000;2022-11-03T05:29:03;24.90;;;9.37;;
24425;SDS011;12611;44.446;26.000;2022-11-03T05:31:38;21.07;;;8.87;;
24425;SDS011;12611;44.446;26.000;2022-11-03T05:34:15;26.43;;;10.57;;
24425;SDS011;12611;44.446;26.000;2022-11-03T05:36:57;24.70;;;10.13;;
24425;SDS011;12611;44.446;26.000;2022-11-03T05:39:28;20.83;;;10.17;;
24425;SDS011;12611;44.446;26.000;2022-11-03T05:41:58;24.43;;;9.90;;
24425;SDS011;12611;44.446;26.000;2022-11-03T05:44:30;20.73;;;10.20;;
24425;SDS011;12611;44.446;26.000;2022-11-03T05:47:02;31.57;;;10.73;;
24425;SDS011;12611;44.446;26.000;2022-11-03T05:49:35;21.97;;;9.90;;
24425;SDS011;12611;44.446;26.000;2022-11-03T05:52:04;21.40;;;9.73;;
24425;SDS011;12611;44.446;26.000;2022-11-03T05:54:39;26.10;;;10.77;;
24425;SDS011;12611;44.446;26.000;2022-11-03T05:57:07;22.43;;;9.57;;
24425;SDS011;12611;44.446;26.000;2022-11-03T05:59:39;23.00;;;9.77;;
24425;SDS011;12611;44.446;26.000;2022-11-03T06:02:19;20.80;;;10.03;;
24425;SDS011;12611;44.446;26.000;2022-11-03T06:04:58;24.03;;;9.37;;
24425;SDS011;12611;44.446;26.000;2022-11-03T06:07:27;22.07;;;9.77;;
24425;SDS011;12611;44.446;26.000;2022-11-03T06:09:58;21.40;;;9.10;;
24425;SDS011;12611;44.446;26.000;2022-11-03T06:12:26;20.93;;;9.53;;
24425;SDS011;12611;44.446;26.000;2022-11-03T06:14:58;28.43;;;10.63;;
24425;SDS011;12611;44.446;26.000;2022-11-03T06:17:26;21.77;;;9.83;;
24425;SDS011;12611;44.446;26.000;2022-11-03T06:19:56;21.93;;;9.60;;
24425;SDS011;12611;44.446;26.000;2022-11-03T06:22:26;20.17;;;9.47;;
24425;SDS011;12611;44.446;26.000;2022-11-03T06:24:58;23.03;;;9.97;;
24425;SDS011;12611;44.446;26.000;2022-11-03T06:27:28;19.63;;;10.40;;
24425;SDS011;12611;44.446;26.000;2022-11-03T06:30:00;25.63;;;10.40;;
24425;SDS011;12611;44.446;26.000;2022-11-03T06:32:39;23.07;;;9.93;;
24425;SDS011;12611;44.446;26.000;2022-11-03T06:35:08;21.67;;;10.57;;
24425;SDS011;12611;44.446;26.000;2022-11-03T06:37:39;23.13;;;9.77;;
24425;SDS011;12611;44.446;26.000;2022-11-03T06:40:27;18.73;;;10.00;;
24425;SDS011;12611;44.446;26.000;2022-11-03T06:43:00;21.93;;;10.13;;
24425;SDS011;12611;44.446;26.000;2022-11-03T06:45:47;32.00;;;11.97;;
24425;SDS011;12611;44.446;26.000;2022-11-03T06:48:24;28.98;;;11.88;;
24425;SDS011;12611;44.446;26.000;2022-11-03T06:50:54;21.87;;;11.00;;
24425;SDS011;12611;44.446;26.000;2022-11-03T06:53:25;26.93;;;11.07;;
24425;SDS011;12611;44.446;26.000;2022-11-03T06:55:56;35.00;;;13.97;;
24425;SDS011;12611;44.446;26.000;2022-11-03T06:58:26;24.30;;;13.87;;
24425;SDS011;12611;44.446;26.000;2022-11-03T07:03:48;25.47;;;12.33;;
24425;SDS011;12611;44.446;26.000;2022-11-03T07:06:19;26.53;;;13.03;;
24425;SDS011;12611;44.446;26.000;2022-11-03T07:08:50;24.40;;;12.40;;
24425;SDS011;12611;44.446;26.000;2022-11-03T07:11:21;24.77;;;11.37;;
24425;SDS011;12611;44.446;26.000;2022-11-03T07:13:51;23.00;;;11.70;;
24425;SDS011;12611;44.446;26.000;2022-11-03T07:16:25;22.60;;;11.07;;
24425;SDS011;12611;44.446;26.000;2022-11-03T07:18:57;24.70;;;12.00;;
24425;SDS011;12611;44.446;26.000;2022-11-03T07:21:32;26.87;;;11.40;;
24425;SDS011;12611;44.446;26.000;2022-11-03T07:24:05;23.27;;;10.77;;
24425;SDS011;12611;44.446;26.000;2022-11-03T07:26:42;22.13;;;10.77;;
24425;SDS011;12611;44.446;26.000;2022-11-03T07:29:11;29.47;;;12.20;;
24425;SDS011;12611;44.446;26.000;2022-11-03T07:31:46;23.60;;;11.00;;
24425;SDS011;12611;44.446;26.000;2022-11-03T07:34:17;27.90;;;11.83;;
24425;SDS011;12611;44.446;26.000;2022-11-03T07:36:50;26.03;;;11.23;;
24425;SDS011;12611;44.446;26.000;2022-11-03T07:39:21;25.83;;;10.73;;
24425;SDS011;12611;44.446;26.000;2022-11-03T07:41:50;23.50;;;11.30;;
24425;SDS011;12611;44.446;26.000;2022-11-03T07:44:19;23.60;;;10.87;;
24425;SDS011;12611;44.446;26.000;2022-11-03T07:46:49;22.27;;;11.50;;
24425;SDS011;12611;44.446;26.000;2022-11-03T07:49:23;20.23;;;9.80;;
24425;SDS011;12611;44.446;26.000;2022-11-03T07:51:54;21.13;;;11.53;;
24425;SDS011;12611;44.446;26.000;2022-11-03T07:54:24;21.17;;;10.40;;
24425;SDS011;12611;44.446;26.000;2022-11-03T07:56:57;21.63;;;10.27;;
24425;SDS011;12611;44.446;26.000;2022-11-03T07:59:27;20.83;;;9.70;;
24425;SDS011;12611;44.446;26.000;2022-11-03T08:02:00;24.97;;;11.50;;
24425;SDS011;12611;44.446;26.000;2022-11-03T08:04:38;28.13;;;10.97;;
24425;SDS011;12611;44.446;26.000;2022-11-03T08:07:06;20.73;;;11.00;;
24425;SDS011;12611;44.446;26.000;2022-11-03T08:09:35;19.53;;;9.90;;
24425;SDS011;12611;44.446;26.000;2022-11-03T08:12:03;19.10;;;10.13;;
24425;SDS011;12611;44.446;26.000;2022-11-03T08:14:32;22.37;;;10.50;;
24425;SDS011;12611;44.446;26.000;2022-11-03T08:17:02;19.93;;;10.43;;
24425;SDS011;12611;44.446;26.000;2022-11-03T08:19:30;19.37;;;11.03;;
24425;SDS011;12611;44.446;26.000;2022-11-03T08:21:59;16.17;;;9.50;;
24425;SDS011;12611;44.446;26.000;2022-11-03T08:24:27;23.50;;;11.23;;
24425;SDS011;12611;44.446;26.000;2022-11-03T08:26:55;20.90;;;10.67;;
24425;SDS011;12611;44.446;26.000;2022-11-03T08:29:24;27.57;;;11.53;;
24425;SDS011;12611;44.446;26.000;2022-11-03T08:31:52;19.47;;;10.70;;
24425;SDS011;12611;44.446;26.000;2022-11-03T08:34:22;19.17;;;10.23;;
24425;SDS011;12611;44.446;26.000;2022-11-03T08:36:50;20.27;;;10.17;;
24425;SDS011;12611;44.446;26.000;2022-11-03T08:39:18;20.87;;;10.33;;
24425;SDS011;12611;44.446;26.000;2022-11-03T08:41:47;21.40;;;10.40;;
24425;SDS011;12611;44.446;26.000;2022-11-03T08:44:15;24.37;;;10.03;;
24425;SDS011;12611;44.446;26.000;2022-11-03T08:46:43;24.00;;;11.37;;
24425;SDS011;12611;44.446;26.000;2022-11-03T08:49:12;23.33;;;10.13;;
24425;SDS011;12611;44.446;26.000;2022-11-03T08:51:41;23.13;;;10.37;;
24425;SDS011;12611;44.446;26.000;2022-11-03T08:54:10;22.07;;;9.73;;
24425;SDS011;12611;44.446;26.000;2022-11-03T08:56:39;23.37;;;9.33;;
24425;SDS011;12611;44.446;26.000;2022-11-03T08:59:07;40.27;;;10.97;;
24425;SDS011;12611;44.446;26.000;2022-11-03T09:01:35;21.40;;;9.37;;
24425;SDS011;12611;44.446;26.000;2022-11-03T09:04:03;22.50;;;10.80;;
24425;SDS011;12611;44.446;26.000;2022-11-03T09:06:32;18.83;;;9.37;;
24425;SDS011;12611;44.446;26.000;2022-11-03T09:09:02;15.10;;;8.33;;
24425;SDS011;12611;44.446;26.000;2022-11-03T09:11:50;17.37;;;8.50;;
24425;SDS011;12611;44.446;26.000;2022-11-03T09:14:18;31.40;;;9.88;;
24425;SDS011;12611;44.446;26.000;2022-11-03T09:16:47;21.58;;;9.32;;
24425;SDS011;12611;44.446;26.000;2022-11-03T09:19:15;13.90;;;7.60;;
24425;SDS011;12611;44.446;26.000;2022-11-03T09:21:43;16.77;;;8.60;;
24425;SDS011;12611;44.446;26.000;2022-11-03T09:24:13;16.43;;;8.43;;
24425;SDS011;12611;44.446;26.000;2022-11-03T09:26:41;20.88;;;9.30;;
24425;SDS011;12611;44.446;26.000;2022-11-03T09:29:09;15.40;;;8.18;;
24425;SDS011;12611;44.446;26.000;2022-11-03T09:31:38;25.05;;;9.93;;
24425;SDS011;12611;44.446;26.000;2022-11-03T09:34:06;21.05;;;9.35;;
24425;SDS011;12611;44.446;26.000;2022-11-03T09:36:34;18.83;;;9.52;;
24425;SDS011;12611;44.446;26.000;2022-11-03T09:39:03;19.33;;;9.48;;
24425;SDS011;12611;44.446;26.000;2022-11-03T09:41:33;19.70;;;8.63;;
24425;SDS011;12611;44.446;26.000;2022-11-03T09:44:21;15.68;;;8.75;;
24425;SDS011;12611;44.446;26.000;2022-11-03T09:46:50;17.08;;;8.65;;
24425;SDS011;12611;44.446;26.000;2022-11-03T09:49:23;17.45;;;9.35;;
24425;SDS011;12611;44.446;26.000;2022-11-03T09:51:52;19.48;;;9.00;;
24425;SDS011;12611;44.446;26.000;2022-11-03T09:54:22;20.17;;;9.05;;
24425;SDS011;12611;44.446;26.000;2022-11-03T09:56:53;22.55;;;9.40;;
24425;SDS011;12611;44.446;26.000;2022-11-03T09:59:24;20.88;;;8.98;;
24425;SDS011;12611;44.446;26.000;2022-11-03T10:01:52;16.08;;;7.63;;
24425;SDS011;12611;44.446;26.000;2022-11-03T10:04:23;13.45;;;6.80;;
24425;SDS011;12611;44.446;26.000;2022-11-03T10:06:54;13.93;;;7.05;;
24425;SDS011;12611;44.446;26.000;2022-11-03T10:09:23;12.68;;;7.32;;
24425;SDS011;12611;44.446;26.000;2022-11-03T10:11:55;16.08;;;7.40;;
24425;SDS011;12611;44.446;26.000;2022-11-03T10:14:23;19.05;;;7.78;;
24425;SDS011;12611;44.446;26.000;2022-11-03T10:16:52;14.23;;;7.15;;
24425;SDS011;12611;44.446;26.000;2022-11-03T10:19:25;14.90;;;7.07;;
24425;SDS011;12611;44.446;26.000;2022-11-03T10:21:54;16.27;;;7.45;;
24425;SDS011;12611;44.446;26.000;2022-11-03T10:24:23;12.88;;;6.75;;
24425;SDS011;12611;44.446;26.000;2022-11-03T10:26:52;14.93;;;6.65;;
24425;SDS011;12611;44.446;26.000;2022-11-03T10:29:23;11.55;;;6.38;;
24425;SDS011;12611;44.446;26.000;2022-11-03T10:31:52;13.75;;;7.35;;
24425;SDS011;12611;44.446;26.000;2022-11-03T10:34:23;19.30;;;6.53;;
24425;SDS011;12611;44.446;26.000;2022-11-03T10:37:15;15.10;;;6.72;;
24425;SDS011;12611;44.446;26.000;2022-11-03T10:39:46;13.43;;;6.80;;
24425;SDS011;12611;44.446;26.000;2022-11-03T10:42:17;12.80;;;7.03;;
24425;SDS011;12611;44.446;26.000;2022-11-03T10:44:47;14.65;;;7.10;;
24425;SDS011;12611;44.446;26.000;2022-11-03T10:47:25;14.40;;;6.97;;
24425;SDS011;12611;44.446;26.000;2022-11-03T10:49:59;19.65;;;6.75;;
24425;SDS011;12611;44.446;26.000;2022-11-03T10:52:45;11.82;;;6.25;;
24425;SDS011;12611;44.446;26.000;2022-11-03T10:55:13;12.63;;;6.78;;
24425;SDS011;12611;44.446;26.000;2022-11-03T10:57:50;13.60;;;6.57;;
24425;SDS011;12611;44.446;26.000;2022-11-03T11:00:21;12.82;;;6.53;;
24425;SDS011;12611;44.446;26.000;2022-11-03T11:02:49;15.52;;;6.30;;
24425;SDS011;12611;44.446;26.000;2022-11-03T11:05:22;12.05;;;5.78;;
24425;SDS011;12611;44.446;26.000;2022-11-03T11:07:51;14.18;;;6.57;;
24425;SDS011;12611;44.446;26.000;2022-11-03T11:10:21;12.80;;;5.85;;
24425;SDS011;12611;44.446;26.000;2022-11-03T11:13:05;16.80;;;6.30;;
24425;SDS011;12611;44.446;26.000;2022-11-03T11:15:57;11.55;;;6.20;;
24425;SDS011;12611;44.446;26.000;2022-11-03T11:21:57;12.20;;;6.10;;
24425;SDS011;12611;44.446;26.000;2022-11-03T11:33:31;12.85;;;6.53;;
24425;SDS011;12611;44.446;26.000;2022-11-03T11:36:01;9.90;;;5.25;;
24425;SDS011;12611;44.446;26.000;2022-11-03T11:47:30;8.40;;;5.03;;
24425;SDS011;12611;44.446;26.000;2022-11-03T11:50:20;11.02;;;4.75;;
24425;SDS011;12611;44.446;26.000;2022-11-03T11:52:52;16.35;;;5.85;;
24425;SDS011;12611;44.446;26.000;2022-11-03T11:55:25;10.05;;;4.60;;
24425;SDS011;12611;44.446;26.000;2022-11-03T11:58:02;8.23;;;4.35;;
24425;SDS011;12611;44.446;26.000;2022-11-03T12:00:48;7.88;;;4.55;;
24425;SDS011;12611;44.446;26.000;2022-11-03T12:03:18;8.77;;;4.55;;
24425;SDS011;12611;44.446;26.000;2022-11-03T12:05:56;11.20;;;4.88;;
24425;SDS011;12611;44.446;26.000;2022-11-03T12:08:26;8.98;;;4.82;;
24425;SDS011;12611;44.446;26.000;2022-11-03T12:10:57;11.90;;;4.78;;
24425;SDS011;12611;44.446;26.000;2022-11-03T12:13:46;7.88;;;4.53;;
24425;SDS011;12611;44.446;26.000;2022-11-03T12:16:26;8.38;;;4.10;;
24425;SDS011;12611;44.446;26.000;2022-11-03T12:22:08;10.52;;;5.10;;
24425;SDS011;12611;44.446;26.000;2022-11-03T12:24:44;10.55;;;4.38;;
24425;SDS011;12611;44.446;26.000;2022-11-03T12:27:18;9.57;;;4.22;;
24425;SDS011;12611;44.446;26.000;2022-11-03T12:30:13;9.93;;;4.65;;
24425;SDS011;12611;44.446;26.000;2022-11-03T12:32:44;11.43;;;4.40;;
24425;SDS011;12611;44.446;26.000;2022-11-03T12:38:21;10.05;;;4.50;;
24425;SDS011;12611;44.446;26.000;2022-11-03T12:40:50;10.00;;;4.72;;
24425;SDS011;12611;44.446;26.000;2022-11-03T12:43:19;9.93;;;4.47;;
24425;SDS011;12611;44.446;26.000;2022-11-03T12:45:47;12.32;;;5.38;;
24425;SDS011;12611;44.446;26.000;2022-11-03T12:48:15;11.80;;;4.68;;
24425;SDS011;12611;44.446;26.000;2022-11-03T12:50:44;9.85;;;5.00;;
24425;SDS011;12611;44.446;26.000;2022-11-03T12:53:13;6.57;;;3.92;;
24425;SDS011;12611;44.446;26.000;2022-11-03T12:55:42;9.95;;;4.30;;
24425;SDS011;12611;44.446;26.000;2022-11-03T12:58:11;8.35;;;4.43;;
24425;SDS011;12611;44.446;26.000;2022-11-03T13:00:39;12.45;;;4.55;;
24425;SDS011;12611;44.446;26.000;2022-11-03T13:03:15;8.68;;;4.85;;
24425;SDS011;12611;44.446;26.000;2022-11-03T13:05:43;12.20;;;4.60;;
24425;SDS011;12611;44.446;26.000;2022-11-03T13:08:14;8.93;;;4.28;;
24425;SDS011;12611;44.446;26.000;2022-11-03T13:10:45;16.88;;;5.13;;
24425;SDS011;12611;44.446;26.000;2022-11-03T13:13:13;10.30;;;4.22;;
24425;SDS011;12611;44.446;26.000;2022-11-03T13:15:41;11.48;;;4.63;;
24425;SDS011;12611;44.446;26.000;2022-11-03T13:18:09;8.88;;;4.82;;
24425;SDS011;12611;44.446;26.000;2022-11-03T13:20:39;8.25;;;4.43;;
24425;SDS011;12611;44.446;26.000;2022-11-03T13:23:09;9.43;;;4.03;;
24425;SDS011;12611;44.446;26.000;2022-11-03T13:25:40;10.60;;;4.38;;
24425;SDS011;12611;44.446;26.000;2022-11-03T13:28:10;9.02;;;3.90;;
24425;SDS011;12611;44.446;26.000;2022-11-03T13:30:38;11.63;;;4.32;;
24425;SDS011;12611;44.446;26.000;2022-11-03T13:33:06;10.25;;;4.28;;
24425;SDS011;12611;44.446;26.000;2022-11-03T13:35:35;12.77;;;5.32;;
24425;SDS011;12611;44.446;26.000;2022-11-03T13:38:04;8.00;;;4.07;;
24425;SDS011;12611;44.446;26.000;2022-11-03T13:40:32;9.30;;;4.57;;
24425;SDS011;12611;44.446;26.000;2022-11-03T13:43:22;9.45;;;4.18;;
24425;SDS011;12611;44.446;26.000;2022-11-03T13:45:50;10.75;;;4.40;;
24425;SDS011;12611;44.446;26.000;2022-11-03T13:48:19;8.82;;;4.55;;
24425;SDS011;12611;44.446;26.000;2022-11-03T13:51:07;9.00;;;4.68;;
24425;SDS011;12611;44.446;26.000;2022-11-03T13:53:37;13.93;;;4.50;;
24425;SDS011;12611;44.446;26.000;2022-11-03T13:56:25;7.53;;;4.20;;
24425;SDS011;12611;44.446;26.000;2022-11-03T13:58:55;10.25;;;4.35;;
24425;SDS011;12611;44.446;26.000;2022-11-03T14:01:43;10.80;;;4.68;;
24425;SDS011;12611;44.446;26.000;2022-11-03T14:04:13;10.52;;;4.32;;
24425;SDS011;12611;44.446;26.000;2022-11-03T14:07:01;9.98;;;4.82;;
24425;SDS011;12611;44.446;26.000;2022-11-03T14:09:29;17.73;;;5.20;;
24425;SDS011;12611;44.446;26.000;2022-11-03T14:11:57;9.90;;;4.57;;
24425;SDS011;12611;44.446;26.000;2022-11-03T14:14:53;11.75;;;4.72;;
24425;SDS011;12611;44.446;26.000;2022-11-03T14:17:21;16.10;;;5.00;;
24425;SDS011;12611;44.446;26.000;2022-11-03T14:19:50;12.40;;;5.05;;
24425;SDS011;12611;44.446;26.000;2022-11-03T14:22:28;14.38;;;5.60;;
24425;SDS011;12611;44.446;26.000;2022-11-03T14:24:56;11.73;;;5.82;;
24425;SDS011;12611;44.446;26.000;2022-11-03T14:27:26;14.23;;;5.65;;
24425;SDS011;12611;44.446;26.000;2022-11-03T14:29:56;15.85;;;5.38;;
24425;SDS011;12611;44.446;26.000;2022-11-03T14:32:24;10.57;;;5.38;;
24425;SDS011;12611;44.446;26.000;2022-11-03T14:34:53;10.55;;;4.85;;
24425;SDS011;12611;44.446;26.000;2022-11-03T14:37:22;10.70;;;5.78;;
24425;SDS011;12611;44.446;26.000;2022-11-03T14:39:52;14.93;;;6.50;;
24425;SDS011;12611;44.446;26.000;2022-11-03T14:42:20;17.23;;;6.68;;
24425;SDS011;12611;44.446;26.000;2022-11-03T14:44:48;18.27;;;7.50;;
24425;SDS011;12611;44.446;26.000;2022-11-03T14:47:23;24.05;;;8.57;;
24425;SDS011;12611;44.446;26.000;2022-11-03T14:49:51;13.25;;;6.63;;
24425;SDS011;12611;44.446;26.000;2022-11-03T14:52:20;13.98;;;6.22;;
24425;SDS011;12611;44.446;26.000;2022-11-03T14:54:48;18.70;;;7.10;;
24425;SDS011;12611;44.446;26.000;2022-11-03T14:57:17;13.98;;;7.03;;
24425;SDS011;12611;44.446;26.000;2022-11-03T14:59:45;14.73;;;6.68;;
24425;SDS011;12611;44.446;26.000;2022-11-03T15:02:18;13.50;;;6.37;;
24425;SDS011;12611;44.446;26.000;2022-11-03T15:04:48;11.48;;;6.40;;
24425;SDS011;12611;44.446;26.000;2022-11-03T15:07:17;14.00;;;6.57;;
24425;SDS011;12611;44.446;26.000;2022-11-03T15:09:45;22.57;;;6.57;;
24425;SDS011;12611;44.446;26.000;2022-11-03T15:12:13;11.60;;;6.13;;
24425;SDS011;12611;44.446;26.000;2022-11-03T15:14:41;13.27;;;5.57;;
24425;SDS011;12611;44.446;26.000;2022-11-03T15:17:09;12.47;;;6.23;;
24425;SDS011;12611;44.446;26.000;2022-11-03T15:19:38;15.80;;;5.83;;
24425;SDS011;12611;44.446;26.000;2022-11-03T15:22:07;12.87;;;5.93;;
24425;SDS011;12611;44.446;26.000;2022-11-03T15:24:36;19.77;;;7.90;;